Time;durP1;ratioP1;P1;durP2;ratioP2;P2;SDS_P1;SDS_P2;PMS_P1;PMS_P2;Temp;Humidity;BMP_temperature;BMP_pressure;BME280_temperature;BME280_humidity;BME280_pressure;Samples;Min_cycle;Max_cycle;Signal;HPM_P1;HPM_P2
2022/11/03 00:02:12;;;;;;;2.87;2.10;;;5.80;99.90;;;;;;7365463;19;20408;-77
2022/11/03 00:04:38;;;;;;;3.35;2.20;;;5.80;99.90;;;;;;7366660;19;20356;-77
2022/11/03 00:07:03;;;;;;;2.40;2.20;;;5.80;99.90;;;;;;7366464;19;20345;-77
2022/11/03 00:09:30;;;;;;;2.95;2.22;;;5.80;99.90;;;;;;7366967;19;20723;-77
2022/11/03 00:11:55;;;;;;;2.75;2.42;;;5.80;99.90;;;;;;7366357;19;20336;-76
2022/11/03 00:14:21;;;;;;;2.70;2.10;;;5.80;99.90;;;;;;7365696;19;20835;-77
2022/11/03 00:16:46;;;;;;;3.07;2.00;;;5.80;99.90;;;;;;7368931;19;20340;-77
2022/11/03 00:19:15;;;;;;;2.95;2.25;;;5.80;99.90;;;;;;7365901;19;21186;-77
2022/11/03 00:21:41;;;;;;;3.25;2.35;;;5.80;99.90;;;;;;7366203;19;20373;-76
2022/11/03 00:24:07;;;;;;;3.50;2.53;;;5.80;99.90;;;;;;7365907;19;20324;-77
2022/11/03 00:26:33;;;;;;;4.32;2.50;;;5.80;99.90;;;;;;7365393;19;20390;-77
2022/11/03 00:29:26;;;;;;;3.23;2.33;;;5.80;99.90;;;;;;7368915;19;20333;-76
2022/11/03 00:31:51;;;;;;;4.90;2.70;;;5.80;99.90;;;;;;7269478;19;2004390;-77
2022/11/03 00:34:17;;;;;;;3.23;2.30;;;5.80;99.90;;;;;;7372861;19;20349;-76
2022/11/03 00:36:43;;;;;;;3.55;2.50;;;5.90;99.90;;;;;;7372639;19;20351;-77
2022/11/03 00:39:08;;;;;;;2.97;2.30;;;5.90;99.90;;;;;;7372593;19;20391;-77
2022/11/03 00:41:34;;;;;;;3.63;2.40;;;5.90;99.90;;;;;;7372572;19;20353;-77
2022/11/03 00:44:00;;;;;;;2.10;1.90;;;5.90;99.90;;;;;;7372809;19;20737;-77
2022/11/03 00:46:25;;;;;;;2.38;1.90;;;5.90;99.90;;;;;;7372212;19;20328;-76
2022/11/03 00:48:51;;;;;;;2.95;1.95;;;5.90;99.90;;;;;;7373228;19;20337;-76
2022/11/03 00:51:18;;;;;;;2.97;2.40;;;5.90;99.90;;;;;;7373364;19;20364;-77
2022/11/03 00:53:51;;;;;;;3.90;2.60;;;5.90;99.90;;;;;;7371369;19;21073;-77
2022/11/03 00:56:18;;;;;;;2.80;2.20;;;5.90;99.90;;;;;;7372054;19;20690;-77
2022/11/03 00:58:44;;;;;;;3.17;2.45;;;6.00;99.90;;;;;;7370415;19;20341;-77
2022/11/03 01:01:11;;;;;;;2.53;2.10;;;5.90;99.90;;;;;;7371687;19;20887;-77
2022/11/03 01:03:38;;;;;;;3.37;2.27;;;5.90;99.90;;;;;;7372411;19;20343;-77
2022/11/03 01:08:51;;;;;;;2.28;2.00;;;5.80;99.90;;;;;;7363777;19;20336;-77
2022/11/03 01:14:03;;;;;;;2.35;1.90;;;5.80;99.90;;;;;;7268713;19;2004307;-76
2022/11/03 01:16:29;;;;;;;2.35;2.15;;;5.70;99.90;;;;;;7372049;19;21170;-77
2022/11/03 01:18:55;;;;;;;2.50;2.30;;;5.70;99.90;;;;;;7370050;19;20329;-77
2022/11/03 01:21:20;;;;;;;2.07;1.90;;;5.80;99.90;;;;;;7371718;19;20308;-77
2022/11/03 01:23:46;;;;;;;3.15;2.20;;;5.80;99.90;;;;;;7371176;19;20355;-77
2022/11/03 01:26:12;;;;;;;3.47;2.40;;;5.70;99.90;;;;;;7370055;19;20384;-77
2022/11/03 01:28:38;;;;;;;2.95;2.28;;;5.70;99.90;;;;;;7372704;19;20341;-77
2022/11/03 01:31:08;;;;;;;2.65;2.30;;;5.70;99.90;;;;;;7369906;19;20293;-77
2022/11/03 01:33:34;;;;;;;2.70;2.00;;;5.70;99.90;;;;;;7370719;19;20352;-76
2022/11/03 01:35:59;;;;;;;2.57;2.10;;;5.70;99.90;;;;;;7371731;19;20317;-77
2022/11/03 01:38:25;;;;;;;2.40;1.92;;;5.70;99.90;;;;;;7369702;19;20413;-77
2022/11/03 01:40:51;;;;;;;2.88;2.40;;;5.70;99.90;;;;;;7373883;19;20998;-77
2022/11/03 01:43:17;;;;;;;4.20;2.70;;;5.60;99.90;;;;;;7369831;19;20368;-77
2022/11/03 01:45:43;;;;;;;4.07;2.13;;;5.60;99.90;;;;;;7370774;19;20725;-76
2022/11/03 01:48:08;;;;;;;2.50;2.30;;;5.60;99.90;;;;;;7371005;19;20316;-76
2022/11/03 01:50:34;;;;;;;2.27;2.07;;;5.60;99.90;;;;;;7370160;19;20349;-77
2022/11/03 01:52:59;;;;;;;2.72;2.20;;;5.60;99.90;;;;;;7370846;19;20324;-76
2022/11/03 01:55:27;;;;;;;4.37;2.50;;;5.60;99.90;;;;;;7370023;19;20305;-76
2022/11/03 01:57:54;;;;;;;2.75;2.22;;;5.50;99.90;;;;;;7370061;19;20341;-76
2022/11/03 02:00:20;;;;;;;4.03;2.60;;;5.50;99.90;;;;;;7370154;19;20749;-75
2022/11/03 02:02:45;;;;;;;4.97;2.30;;;5.50;99.90;;;;;;7378058;19;20366;-77
2022/11/03 02:05:11;;;;;;;3.63;2.60;;;5.50;99.90;;;;;;7376040;19;20733;-76
2022/11/03 02:07:56;;;;;;;3.30;2.33;;;5.50;99.90;;;;;;7372286;19;20355;-77
2022/11/03 02:10:22;;;;;;;2.63;1.95;;;5.50;99.90;;;;;;7369592;19;20317;-76
2022/11/03 02:12:48;;;;;;;2.40;2.10;;;5.50;99.90;;;;;;7370762;19;20954;-77
2022/11/03 02:15:14;;;;;;;2.70;2.10;;;5.50;99.90;;;;;;7368896;19;20327;-77
2022/11/03 02:17:41;;;;;;;2.40;2.20;;;5.50;99.90;;;;;;7369448;19;20382;-76
2022/11/03 02:20:08;;;;;;;2.35;2.00;;;5.50;99.90;;;;;;7369682;19;20407;-77
2022/11/03 02:23:10;;;;;;;2.37;1.90;;;5.50;99.90;;;;;;7369629;19;20333;-76
2022/11/03 02:25:57;;;;;;;2.40;2.15;;;5.40;99.90;;;;;;7266403;19;2013038;-76
2022/11/03 02:28:29;;;;;;;2.33;2.08;;;5.40;99.90;;;;;;7368306;19;20331;-77
2022/11/03 02:31:11;;;;;;;2.75;2.20;;;5.40;99.90;;;;;;7369789;19;21113;-76
2022/11/03 02:34:00;;;;;;;4.20;2.33;;;5.30;99.90;;;;;;7266366;19;2018832;-76
2022/11/03 02:36:34;;;;;;;2.85;2.05;;;5.30;99.90;;;;;;7368554;19;20316;-76
2022/11/03 02:39:20;;;;;;;3.03;2.50;;;5.30;99.90;;;;;;7366939;19;20344;-76
2022/11/03 02:41:46;;;;;;;5.03;2.35;;;5.30;99.90;;;;;;7265618;19;2019864;-76
2022/11/03 02:44:15;;;;;;;3.85;2.17;;;5.30;99.90;;;;;;7369158;19;20327;-76
2022/11/03 02:46:42;;;;;;;2.75;2.40;;;5.30;99.90;;;;;;7368453;19;21198;-76
2022/11/03 02:49:07;;;;;;;3.50;2.50;;;5.20;99.90;;;;;;7367816;19;21222;-77
2022/11/03 02:51:33;;;;;;;3.00;2.40;;;5.20;99.90;;;;;;7368892;19;20344;-76
2022/11/03 02:54:04;;;;;;;4.20;2.65;;;5.20;99.90;;;;;;7367128;19;20395;-76
2022/11/03 02:56:30;;;;;;;2.63;2.22;;;5.30;99.90;;;;;;7367881;19;21189;-76
2022/11/03 02:59:08;;;;;;;3.97;2.40;;;5.20;99.90;;;;;;7368135;19;20334;-77
2022/11/03 03:01:45;;;;;;;2.97;2.20;;;5.20;99.90;;;;;;7265450;19;2004339;-76
2022/11/03 03:04:12;;;;;;;2.20;2.00;;;5.20;99.90;;;;;;7368284;19;20317;-76
2022/11/03 03:06:41;;;;;;;1.98;1.77;;;5.20;99.90;;;;;;7367308;19;20689;-76
2022/11/03 03:09:08;;;;;;;2.50;2.03;;;5.20;99.90;;;;;;7367782;19;20420;-76
2022/11/03 03:11:36;;;;;;;3.40;2.10;;;5.10;99.90;;;;;;7367889;19;20347;-76
2022/11/03 03:14:16;;;;;;;2.58;1.83;;;5.10;99.90;;;;;;7368952;19;20316;-76
2022/11/03 03:16:57;;;;;;;3.80;2.20;;;5.10;99.90;;;;;;7264946;19;2020014;-77
2022/11/03 03:19:30;;;;;;;2.17;1.98;;;5.00;99.90;;;;;;7367413;19;20337;-76
2022/11/03 03:21:56;;;;;;;2.30;2.10;;;4.90;99.90;;;;;;7367796;19;20325;-77
2022/11/03 03:24:27;;;;;;;1.93;1.83;;;4.90;99.90;;;;;;7367370;19;20681;-76
2022/11/03 03:26:53;;;;;;;1.95;1.77;;;4.80;99.90;;;;;;7367748;19;20328;-77
2022/11/03 03:29:21;;;;;;;3.10;2.13;;;4.80;99.90;;;;;;7367261;19;20327;-76
2022/11/03 03:31:55;;;;;;;2.47;1.98;;;4.70;99.90;;;;;;7366892;19;20349;-76
2022/11/03 03:34:21;;;;;;;2.13;1.65;;;4.60;99.90;;;;;;7367052;19;20940;-77
2022/11/03 03:36:46;;;;;;;2.27;1.60;;;4.60;99.90;;;;;;7367277;19;20465;-77
2022/11/03 03:39:12;;;;;;;1.90;1.80;;;4.50;99.90;;;;;;7365555;19;20396;-77
2022/11/03 03:41:37;;;;;;;2.10;1.90;;;4.50;99.90;;;;;;7365812;19;21423;-76
2022/11/03 03:44:04;;;;;;;1.70;1.60;;;4.40;99.90;;;;;;7365975;19;20320;-76
2022/11/03 03:46:35;;;;;;;1.80;1.70;;;4.40;99.90;;;;;;7366431;19;20325;-77
2022/11/03 03:49:01;;;;;;;1.73;1.63;;;4.30;99.90;;;;;;7367248;19;20332;-77
2022/11/03 03:51:27;;;;;;;1.73;1.50;;;4.30;99.90;;;;;;7364692;19;20413;-76
2022/11/03 03:57:22;;;;;;;1.83;1.50;;;4.20;99.90;;;;;;7156507;19;2004675;-76
2022/11/03 03:59:48;;;;;;;1.85;1.40;;;4.10;99.90;;;;;;7367640;19;21077;-76
2022/11/03 04:02:13;;;;;;;1.80;1.70;;;4.00;99.90;;;;;;7365310;19;20440;-77
2022/11/03 04:04:39;;;;;;;1.60;1.50;;;4.00;99.90;;;;;;7366550;19;20369;-75
2022/11/03 04:09:49;;;;;;;1.50;1.40;;;3.90;99.90;;;;;;7374056;19;20383;-75
2022/11/03 04:23:13;;;;;;;1.92;1.55;;;3.80;99.90;;;;;;7277521;19;2004533;-76
2022/11/03 04:25:38;;;;;;;2.05;1.52;;;3.80;99.90;;;;;;7374902;19;20872;-76
2022/11/03 04:28:11;;;;;;;2.00;1.80;;;3.70;99.90;;;;;;7373998;19;20875;-75
2022/11/03 04:30:37;;;;;;;1.63;1.52;;;3.70;99.90;;;;;;7373776;19;20337;-76
2022/11/03 04:33:04;;;;;;;1.83;1.60;;;3.70;99.90;;;;;;7373568;19;20340;-75
2022/11/03 04:35:29;;;;;;;1.60;1.50;;;3.60;99.90;;;;;;7372245;19;20815;-75
2022/11/03 04:38:03;;;;;;;2.10;1.50;;;3.70;99.90;;;;;;7372110;19;20312;-75
2022/11/03 04:40:29;;;;;;;1.90;1.67;;;3.70;99.90;;;;;;7372535;19;20309;-76
2022/11/03 04:42:55;;;;;;;2.00;1.60;;;3.70;99.90;;;;;;7374337;19;20323;-76
2022/11/03 04:45:28;;;;;;;2.20;2.00;;;3.70;99.90;;;;;;7375827;19;20320;-76
2022/11/03 04:47:53;;;;;;;1.80;1.70;;;3.70;99.90;;;;;;7376898;19;21230;-76
2022/11/03 04:50:20;;;;;;;2.30;2.10;;;3.80;99.90;;;;;;7372755;19;20352;-76
2022/11/03 04:52:47;;;;;;;1.85;1.70;;;3.70;99.90;;;;;;7373188;19;20344;-76
2022/11/03 04:55:14;;;;;;;2.10;1.80;;;3.60;99.90;;;;;;7373543;19;20391;-76
2022/11/03 04:57:40;;;;;;;2.10;1.90;;;3.60;99.90;;;;;;7370878;19;20344;-76
2022/11/03 05:00:09;;;;;;;1.90;1.60;;;3.60;99.90;;;;;;7371496;19;20389;-76
2022/11/03 05:02:34;;;;;;;1.70;1.60;;;3.60;99.90;;;;;;7371116;19;20340;-75
2022/11/03 05:05:00;;;;;;;1.80;1.70;;;3.60;99.90;;;;;;7372826;19;20791;-76
2022/11/03 05:07:30;;;;;;;2.60;1.83;;;3.60;99.90;;;;;;7371589;19;20333;-76
2022/11/03 05:09:55;;;;;;;2.10;1.90;;;3.70;99.90;;;;;;7370766;19;20316;-76
2022/11/03 05:12:21;;;;;;;2.50;2.22;;;3.70;99.90;;;;;;7372054;19;20678;-76
2022/11/03 05:14:47;;;;;;;3.17;2.17;;;3.60;99.90;;;;;;7371453;19;20373;-76
2022/11/03 05:17:26;;;;;;;2.40;2.10;;;3.60;99.90;;;;;;7370577;19;20389;-76
2022/11/03 05:19:55;;;;;;;2.13;1.92;;;3.50;99.90;;;;;;7371592;19;20828;-76
2022/11/03 05:22:21;;;;;;;1.98;1.80;;;3.50;99.90;;;;;;7370958;19;20883;-75
2022/11/03 05:24:47;;;;;;;1.70;1.60;;;3.50;99.90;;;;;;7372120;19;20352;-76
2022/11/03 05:27:18;;;;;;;1.67;1.58;;;3.50;99.90;;;;;;7371304;19;20339;-76
2022/11/03 05:29:44;;;;;;;1.80;1.70;;;3.50;99.90;;;;;;7370241;19;20341;-76
2022/11/03 05:32:22;;;;;;;2.05;1.85;;;3.50;99.90;;;;;;7371782;19;20329;-76
2022/11/03 05:34:50;;;;;;;2.08;1.90;;;3.50;99.90;;;;;;7371170;19;20341;-76
2022/11/03 05:37:25;;;;;;;1.90;1.80;;;3.50;99.90;;;;;;7370849;19;20469;-76
2022/11/03 05:39:51;;;;;;;2.20;2.00;;;3.50;99.90;;;;;;7369994;19;20422;-76
2022/11/03 05:42:36;;;;;;;3.55;1.77;;;3.50;99.90;;;;;;7369902;19;21173;-76
2022/11/03 05:45:12;;;;;;;2.45;1.75;;;3.50;99.90;;;;;;7369681;19;21507;-76
2022/11/03 05:47:38;;;;;;;2.15;1.95;;;3.40;99.90;;;;;;7268530;19;2004201;-76
2022/11/03 05:50:23;;;;;;;2.42;2.03;;;3.40;99.90;;;;;;7370334;19;20333;-76
2022/11/03 05:52:51;;;;;;;2.13;1.92;;;3.40;99.90;;;;;;7370786;19;20360;-76
2022/11/03 05:55:23;;;;;;;2.20;2.00;;;3.40;99.90;;;;;;7370182;19;20316;-76
2022/11/03 05:57:49;;;;;;;2.00;1.80;;;3.30;99.90;;;;;;7370853;19;20354;-76
2022/11/03 06:00:27;;;;;;;1.90;1.80;;;3.30;99.90;;;;;;7370777;19;20333;-76
2022/11/03 06:02:54;;;;;;;3.60;1.92;;;3.30;99.90;;;;;;7369754;19;20332;-76
2022/11/03 06:05:20;;;;;;;1.88;1.70;;;3.30;99.90;;;;;;7369813;19;20325;-76
2022/11/03 06:07:47;;;;;;;1.90;1.80;;;3.30;99.90;;;;;;7368898;19;20371;-77
2022/11/03 06:10:27;;;;;;;2.20;1.90;;;3.30;99.90;;;;;;7366138;19;21242;-76
2022/11/03 06:12:53;;;;;;;2.30;2.10;;;3.30;99.90;;;;;;7368872;19;20367;-76
2022/11/03 06:15:35;;;;;;;2.40;2.20;;;3.30;99.90;;;;;;7369431;19;20331;-76
2022/11/03 06:18:09;;;;;;;3.15;2.40;;;3.30;99.90;;;;;;7369171;19;20305;-76
2022/11/03 06:20:35;;;;;;;2.25;2.05;;;3.30;99.90;;;;;;7267017;19;2004312;-76
2022/11/03 06:23:00;;;;;;;2.23;2.07;;;3.30;99.90;;;;;;7370736;19;20351;-76
2022/11/03 06:25:30;;;;;;;2.60;2.25;;;3.30;99.90;;;;;;7369202;19;20888;-76
2022/11/03 06:27:59;;;;;;;2.80;2.22;;;3.30;99.90;;;;;;7372419;19;20890;-76
2022/11/03 06:30:29;;;;;;;2.10;1.90;;;3.30;99.90;;;;;;7371797;19;20328;-76
2022/11/03 06:32:58;;;;;;;3.00;2.00;;;3.30;99.90;;;;;;7369121;19;20341;-76
2022/11/03 06:35:24;;;;;;;3.77;2.33;;;3.40;99.90;;;;;;7373345;19;20417;-76
2022/11/03 06:37:50;;;;;;;2.50;2.20;;;3.40;99.90;;;;;;7376984;19;20428;-76
2022/11/03 06:40:37;;;;;;;2.30;2.10;;;3.40;99.90;;;;;;7371214;19;20341;-76
2022/11/03 06:43:30;;;;;;;2.20;2.00;;;3.50;99.90;;;;;;7367777;19;20308;-76
2022/11/03 06:45:59;;;;;;;2.40;2.20;;;3.50;99.90;;;;;;7266951;19;2004254;-76
2022/11/03 06:48:28;;;;;;;2.75;2.25;;;3.50;99.90;;;;;;7369484;19;20317;-76
2022/11/03 06:50:54;;;;;;;2.65;2.33;;;3.50;99.90;;;;;;7366310;19;20321;-76
2022/11/03 06:53:31;;;;;;;2.58;2.10;;;3.50;99.90;;;;;;7368677;19;20358;-76
2022/11/03 06:55:56;;;;;;;3.00;2.03;;;3.50;99.90;;;;;;7368702;19;20305;-76
2022/11/03 06:58:26;;;;;;;2.20;2.00;;;3.50;99.90;;;;;;7366968;19;20342;-76
2022/11/03 07:00:53;;;;;;;2.43;2.00;;;3.50;99.90;;;;;;7367541;19;20356;-76
2022/11/03 07:03:36;;;;;;;2.67;2.47;;;3.60;99.90;;;;;;7366285;19;20343;-76
2022/11/03 07:06:19;;;;;;;2.50;2.22;;;3.60;99.90;;;;;;7366356;19;20361;-76
2022/11/03 07:08:47;;;;;;;3.22;2.13;;;3.60;99.90;;;;;;7266584;19;2004543;-76
2022/11/03 07:11:49;;;;;;;3.05;2.20;;;3.60;99.90;;;;;;7366631;19;20324;-76
2022/11/03 07:14:18;;;;;;;2.30;2.10;;;3.70;99.90;;;;;;7263032;19;2004662;-76
2022/11/03 07:16:49;;;;;;;3.78;2.67;;;3.70;99.90;;;;;;7366254;19;20395;-76
2022/11/03 07:19:33;;;;;;;4.22;2.60;;;3.60;99.90;;;;;;7368056;19;20320;-76
2022/11/03 07:22:00;;;;;;;3.43;2.23;;;3.60;99.90;;;;;;7367889;19;20312;-76
2022/11/03 07:24:25;;;;;;;3.15;2.40;;;3.60;99.90;;;;;;7367090;19;20343;-76
2022/11/03 07:27:12;;;;;;;2.45;2.25;;;3.70;99.90;;;;;;7366660;19;20779;-76
2022/11/03 07:29:37;;;;;;;2.78;2.55;;;3.80;99.90;;;;;;7262176;19;2004343;-76
2022/11/03 07:32:08;;;;;;;3.83;2.47;;;3.90;99.90;;;;;;7366997;19;20338;-76
2022/11/03 07:34:33;;;;;;;3.40;2.80;;;4.10;99.90;;;;;;7366026;19;20373;-76
2022/11/03 07:36:59;;;;;;;2.63;2.40;;;4.30;99.90;;;;;;7363584;19;21384;-76
2022/11/03 07:39:26;;;;;;;5.35;2.30;;;4.40;99.90;;;;;;7367811;19;20305;-77
2022/11/03 07:41:52;;;;;;;5.03;2.63;;;4.60;99.90;;;;;;7366664;19;20337;-77
2022/11/03 07:44:22;;;;;;;2.85;2.22;;;4.80;99.90;;;;;;7367354;19;20312;-77
2022/11/03 07:46:48;;;;;;;2.70;2.42;;;5.00;99.90;;;;;;7366009;19;20356;-76
2022/11/03 07:49:25;;;;;;;2.40;2.20;;;5.10;99.90;;;;;;7366831;19;20316;-77
2022/11/03 07:51:51;;;;;;;4.50;2.65;;;5.20;99.90;;;;;;7366888;19;20357;-77
2022/11/03 07:54:22;;;;;;;4.60;2.80;;;5.40;99.90;;;;;;7366469;19;20396;-77
2022/11/03 07:56:52;;;;;;;3.38;2.58;;;5.40;99.90;;;;;;7365211;19;20360;-77
2022/11/03 07:59:20;;;;;;;2.63;2.10;;;5.50;99.90;;;;;;7365165;19;20688;-77
2022/11/03 08:01:49;;;;;;;2.38;2.03;;;5.60;99.90;;;;;;7366014;19;21083;-77
2022/11/03 08:04:31;;;;;;;2.67;2.45;;;5.60;99.90;;;;;;7366746;19;20328;-76
2022/11/03 08:06:56;;;;;;;2.65;2.40;;;5.60;99.90;;;;;;7366164;19;20322;-76
2022/11/03 08:09:22;;;;;;;2.73;2.53;;;5.60;99.90;;;;;;7368838;19;20334;-77
2022/11/03 08:11:48;;;;;;;2.72;2.30;;;5.60;99.90;;;;;;7366881;19;20341;-78
2022/11/03 08:14:13;;;;;;;3.80;2.50;;;5.70;99.90;;;;;;7364528;19;20344;-77
2022/11/03 08:16:39;;;;;;;3.60;2.60;;;5.70;99.90;;;;;;7364856;19;20337;-77
2022/11/03 08:19:05;;;;;;;2.88;2.50;;;5.80;99.90;;;;;;7362847;19;20317;-77
2022/11/03 08:21:30;;;;;;;4.07;2.77;;;5.80;99.90;;;;;;7365490;19;20292;-77
2022/11/03 08:23:56;;;;;;;3.33;2.47;;;5.90;99.90;;;;;;7364503;19;20316;-76
2022/11/03 08:26:22;;;;;;;2.40;2.20;;;5.90;99.90;;;;;;7364841;19;20843;-76
2022/11/03 08:28:47;;;;;;;2.88;2.50;;;6.00;99.90;;;;;;7366950;19;20372;-76
2022/11/03 08:31:13;;;;;;;4.40;2.80;;;6.10;99.90;;;;;;7363351;19;20332;-76
2022/11/03 08:33:38;;;;;;;4.07;2.22;;;6.20;99.90;;;;;;7365020;19;20340;-76
2022/11/03 08:36:04;;;;;;;3.23;2.27;;;6.30;99.90;;;;;;7364484;19;20309;-76
2022/11/03 08:38:30;;;;;;;2.45;2.10;;;6.40;99.90;;;;;;7366837;19;20472;-76
2022/11/03 08:40:57;;;;;;;3.37;2.30;;;6.50;99.90;;;;;;7365526;19;20810;-76
2022/11/03 08:43:22;;;;;;;3.20;2.28;;;6.50;99.90;;;;;;7364853;19;21243;-76
2022/11/03 08:45:52;;;;;;;3.13;2.40;;;6.70;99.90;;;;;;7364709;19;20379;-76
2022/11/03 08:48:18;;;;;;;3.88;2.30;;;6.70;99.90;;;;;;7364859;19;20692;-77
2022/11/03 08:50:44;;;;;;;20.67;3.85;;;6.80;99.90;;;;;;7364189;19;20356;-76
2022/11/03 08:53:09;;;;;;;3.25;2.20;;;6.90;99.90;;;;;;7368251;19;20320;-76
2022/11/03 08:55:35;;;;;;;2.33;2.03;;;7.00;99.90;;;;;;7379945;19;20341;-77
2022/11/03 08:58:01;;;;;;;3.63;2.10;;;7.10;99.90;;;;;;7377571;19;20304;-77
2022/11/03 09:00:26;;;;;;;2.15;1.98;;;7.30;99.90;;;;;;7373963;19;20718;-77
2022/11/03 09:02:52;;;;;;;6.87;2.30;;;7.40;99.90;;;;;;7373391;19;20360;-77
2022/11/03 09:05:17;;;;;;;2.45;2.25;;;7.50;99.90;;;;;;7373405;19;20305;-77
2022/11/03 09:07:43;;;;;;;6.17;2.37;;;7.60;99.90;;;;;;7371292;19;20340;-76
2022/11/03 09:10:08;;;;;;;4.53;2.80;;;7.70;99.90;;;;;;7371607;19;20349;-76
2022/11/03 09:12:35;;;;;;;4.65;2.67;;;7.90;99.90;;;;;;7371934;19;20669;-77
2022/11/03 09:15:00;;;;;;;3.28;2.60;;;8.00;99.90;;;;;;7372923;19;20679;-77
2022/11/03 09:17:26;;;;;;;5.22;2.83;;;8.20;99.90;;;;;;7369702;19;20999;-77
2022/11/03 09:19:52;;;;;;;5.37;2.77;;;8.30;99.90;;;;;;7370754;19;20353;-77
2022/11/03 09:22:17;;;;;;;3.50;2.93;;;8.40;99.90;;;;;;7371159;19;20361;-77
2022/11/03 09:24:43;;;;;;;2.70;2.28;;;8.60;99.90;;;;;;7369279;19;20412;-77
2022/11/03 09:27:09;;;;;;;4.87;3.00;;;8.70;99.90;;;;;;7368977;19;21135;-77
2022/11/03 09:29:34;;;;;;;4.82;2.97;;;8.80;99.90;;;;;;7371914;19;20337;-77
2022/11/03 09:32:00;;;;;;;3.23;2.83;;;8.90;99.90;;;;;;7371192;19;20313;-78
2022/11/03 09:34:26;;;;;;;4.05;2.80;;;9.10;99.90;;;;;;7370954;19;20578;-78
2022/11/03 09:36:51;;;;;;;3.07;2.77;;;9.20;99.90;;;;;;7370720;19;20372;-78
2022/11/03 09:39:17;;;;;;;6.10;3.33;;;9.40;99.90;;;;;;7372743;19;20316;-78
2022/11/03 09:41:42;;;;;;;5.17;3.17;;;9.60;99.90;;;;;;7371760;19;20347;-77
2022/11/03 09:44:08;;;;;;;5.28;3.03;;;9.70;99.90;;;;;;7369659;19;20937;-77
2022/11/03 09:46:34;;;;;;;6.93;3.53;;;9.80;99.90;;;;;;7373607;19;20344;-78
2022/11/03 09:48:59;;;;;;;6.28;3.30;;;9.90;99.90;;;;;;7374133;19;20352;-77
2022/11/03 09:51:25;;;;;;;5.60;3.67;;;10.00;99.90;;;;;;7371765;19;20317;-78
2022/11/03 09:53:51;;;;;;;3.45;3.00;;;10.10;99.90;;;;;;7371121;19;20344;-78
2022/11/03 09:56:18;;;;;;;5.80;3.30;;;10.20;99.90;;;;;;7369253;19;20325;-77
2022/11/03 09:58:43;;;;;;;5.07;3.22;;;10.30;99.90;;;;;;7369467;19;20340;-78
2022/11/03 10:01:10;;;;;;;4.13;3.20;;;10.40;99.90;;;;;;7368407;19;20317;-78
2022/11/03 10:03:35;;;;;;;5.53;3.23;;;10.50;99.90;;;;;;7368154;19;20732;-78
2022/11/03 10:06:01;;;;;;;4.03;3.10;;;10.60;99.90;;;;;;7368954;19;20313;-79
2022/11/03 10:08:28;;;;;;;4.27;3.20;;;10.70;99.90;;;;;;7368593;19;20427;-79
2022/11/03 10:10:54;;;;;;;6.95;2.67;;;10.90;99.90;;;;;;7367596;19;20341;-78
2022/11/03 10:13:32;;;;;;;4.23;2.77;;;11.00;99.90;;;;;;7367516;19;20934;-78
2022/11/03 10:16:02;;;;;;;3.70;2.83;;;11.20;99.90;;;;;;7367408;19;20312;-78
2022/11/03 10:18:27;;;;;;;4.35;2.92;;;11.30;99.90;;;;;;7366674;19;20730;-78
2022/11/03 10:20:53;;;;;;;3.33;2.80;;;11.40;99.90;;;;;;7368628;19;20416;-79
2022/11/03 10:23:19;;;;;;;3.90;2.88;;;11.40;99.90;;;;;;7368433;19;20483;-78
2022/11/03 10:25:45;;;;;;;4.40;2.97;;;11.50;99.90;;;;;;7367879;19;20357;-78
2022/11/03 10:28:12;;;;;;;5.97;3.00;;;11.60;99.90;;;;;;7368836;19;20354;-78
2022/11/03 10:30:54;;;;;;;5.40;2.83;;;11.60;99.90;;;;;;7367668;19;20345;-78
2022/11/03 10:33:29;;;;;;;3.35;2.72;;;11.70;99.90;;;;;;7366831;19;20768;-78
2022/11/03 10:35:58;;;;;;;4.60;2.40;;;11.80;99.90;;;;;;7367560;19;20532;-78
2022/11/03 10:38:29;;;;;;;5.47;2.70;;;11.90;99.90;;;;;;7367271;19;20369;-79
2022/11/03 10:40:55;;;;;;;4.20;2.45;;;12.00;99.90;;;;;;7367338;19;20340;-79
2022/11/03 10:43:20;;;;;;;4.30;2.63;;;12.10;99.90;;;;;;7366847;19;20363;-78
2022/11/03 10:45:48;;;;;;;3.88;2.38;;;12.10;99.90;;;;;;7367649;19;20369;-78
2022/11/03 10:48:14;;;;;;;3.93;2.47;;;12.20;99.90;;;;;;7366061;19;20323;-79
2022/11/03 10:50:39;;;;;;;5.03;2.72;;;12.30;99.90;;;;;;7365912;19;20349;-78
2022/11/03 10:53:08;;;;;;;5.27;2.60;;;12.30;99.90;;;;;;7366478;19;20329;-78
2022/11/03 10:55:34;;;;;;;4.53;2.50;;;12.40;99.90;;;;;;7368439;19;20333;-78
2022/11/03 10:57:59;;;;;;;3.77;2.40;;;12.60;99.90;;;;;;7368107;19;20374;-77
2022/11/03 11:00:25;;;;;;;3.50;2.35;;;12.80;99.90;;;;;;7365554;19;21208;-78
2022/11/03 11:02:57;;;;;;;4.43;2.50;;;12.90;99.90;;;;;;7367467;19;20357;-77
2022/11/03 11:05:23;;;;;;;5.00;2.45;;;13.10;99.90;;;;;;7366732;19;20326;-78
2022/11/03 11:07:52;;;;;;;4.60;2.47;;;13.20;99.90;;;;;;7366076;19;20341;-78
2022/11/03 11:10:28;;;;;;;3.03;2.50;;;13.20;99.90;;;;;;7365671;19;20340;-77
2022/11/03 11:13:18;;;;;;;3.60;2.25;;;13.30;99.90;;;;;;7366071;19;20372;-78
2022/11/03 11:15:48;;;;;;;4.00;2.37;;;13.40;99.90;;;;;;7272088;19;2004916;-78
2022/11/03 11:18:29;;;;;;;3.30;2.35;;;13.50;99.90;;;;;;7371307;19;20336;-78
2022/11/03 11:21:01;;;;;;;3.33;2.38;;;13.50;99.90;;;;;;7371507;19;20401;-78
2022/11/03 11:23:26;;;;;;;3.83;2.13;;;13.50;99.90;;;;;;7372630;19;20304;-77
2022/11/03 11:26:16;;;;;;;3.23;2.00;;;13.60;99.90;;;;;;7370248;19;20349;-78
2022/11/03 11:28:46;;;;;;;2.67;2.35;;;13.60;99.90;;;;;;7274387;19;2004427;-77
2022/11/03 11:31:30;;;;;;;2.58;2.28;;;13.60;99.90;;;;;;7365846;19;20317;-77
2022/11/03 11:34:16;;;;;;;2.63;1.97;;;13.80;99.90;;;;;;7366341;19;20882;-77
2022/11/03 11:36:53;;;;;;;3.38;2.03;;;13.90;99.90;;;;;;7263215;19;2004327;-76
2022/11/03 11:39:21;;;;;;;5.67;2.23;;;13.80;99.90;;;;;;7365306;19;20341;-77
2022/11/03 11:42:06;;;;;;;3.40;2.10;;;14.00;99.90;;;;;;7367618;19;20637;-77
2022/11/03 11:44:44;;;;;;;2.85;1.80;;;14.00;99.90;;;;;;7365108;19;20365;-78
2022/11/03 11:47:39;;;;;;;2.60;1.92;;;14.20;99.90;;;;;;7265318;19;2004280;-78
2022/11/03 11:50:10;;;;;;;2.20;1.92;;;14.20;99.90;;;;;;7365658;19;20351;-77
2022/11/03 11:53:00;;;;;;;2.30;1.80;;;14.30;99.90;;;;;;7264257;19;2004268;-77
2022/11/03 11:56:04;;;;;;;2.50;1.90;;;14.20;99.90;;;;;;7365086;19;20329;-76
2022/11/03 11:58:42;;;;;;;1.83;1.65;;;14.20;99.90;;;;;;7261060;19;2004203;-77
2022/11/03 12:01:27;;;;;;;2.60;1.85;;;14.10;99.90;;;;;;7259915;19;2004285;-77
2022/11/03 12:03:57;;;;;;;2.73;1.80;;;14.20;99.90;;;;;;7364998;19;20324;-77
2022/11/03 12:06:38;;;;;;;2.85;1.77;;;14.20;99.90;;;;;;7364937;19;20884;-77
2022/11/03 12:09:11;;;;;;;5.03;2.00;;;14.30;99.90;;;;;;7364038;19;20313;-77
2022/11/03 12:11:47;;;;;;;2.63;1.47;;;14.20;99.90;;;;;;7263113;19;2004341;-77
2022/11/03 12:14:27;;;;;;;2.70;1.83;;;14.30;99.90;;;;;;7364855;19;20689;-77
2022/11/03 12:16:53;;;;;;;3.60;1.77;;;14.40;99.90;;;;;;7367564;19;20355;-77
2022/11/03 12:19:51;;;;;;;3.80;1.60;;;14.50;99.90;;;;;;7363489;19;20360;-77
2022/11/03 12:22:23;;;;;;;1.95;1.75;;;14.40;99.90;;;;;;7263457;19;2004377;-77
2022/11/03 12:24:52;;;;;;;1.90;1.50;;;14.40;99.90;;;;;;7367045;19;20433;-77
2022/11/03 12:27:19;;;;;;;2.50;1.70;;;14.40;99.90;;;;;;7369128;19;20316;-77
2022/11/03 12:29:44;;;;;;;2.50;1.60;;;14.40;99.90;;;;;;7371845;19;20344;-77
2022/11/03 12:32:10;;;;;;;2.40;1.80;;;14.40;99.90;;;;;;7372082;19;20359;-77
2022/11/03 12:34:36;;;;;;;2.00;1.40;;;14.30;99.90;;;;;;7372900;19;21238;-77
2022/11/03 12:37:01;;;;;;;4.32;1.70;;;14.40;99.90;;;;;;7374756;19;20296;-76
2022/11/03 12:39:27;;;;;;;2.60;1.70;;;14.30;99.90;;;;;;7371974;19;20852;-76
2022/11/03 12:41:52;;;;;;;1.90;1.60;;;14.30;99.90;;;;;;7371372;19;20361;-77
2022/11/03 12:44:18;;;;;;;2.15;1.50;;;14.30;99.90;;;;;;7372572;19;20313;-78
2022/11/03 12:46:44;;;;;;;1.90;1.63;;;14.30;99.90;;;;;;7372237;19;21009;-77
2022/11/03 12:49:09;;;;;;;2.30;1.60;;;14.30;99.90;;;;;;7370613;19;20324;-77
2022/11/03 12:51:35;;;;;;;1.65;1.35;;;14.50;99.90;;;;;;7372915;19;20357;-77
2022/11/03 12:54:00;;;;;;;2.57;1.60;;;14.50;99.90;;;;;;7371363;19;20774;-76
2022/11/03 12:56:26;;;;;;;2.03;1.60;;;14.50;99.90;;;;;;7374039;19;20309;-77
2022/11/03 12:58:51;;;;;;;1.50;1.40;;;14.60;99.90;;;;;;7373067;19;20352;-77
2022/11/03 13:01:17;;;;;;;2.83;1.70;;;14.80;99.90;;;;;;7378997;19;21010;-77
2022/11/03 13:03:43;;;;;;;2.10;1.50;;;14.80;99.90;;;;;;7382926;19;20345;-77
2022/11/03 13:06:10;;;;;;;4.07;1.80;;;14.90;99.90;;;;;;7371777;19;20323;-77
2022/11/03 13:08:36;;;;;;;2.28;1.67;;;14.90;99.90;;;;;;7372088;19;20351;-76
2022/11/03 13:11:01;;;;;;;2.57;1.47;;;14.90;99.90;;;;;;7373075;19;20312;-77
2022/11/03 13:13:27;;;;;;;2.78;1.67;;;14.90;99.90;;;;;;7370412;19;21489;-78
2022/11/03 13:15:53;;;;;;;1.90;1.40;;;14.90;99.90;;;;;;7370670;19;20479;-78
2022/11/03 13:18:19;;;;;;;3.70;1.60;;;14.80;99.90;;;;;;7369802;19;21178;-77
2022/11/03 13:20:45;;;;;;;2.93;1.60;;;14.80;99.90;;;;;;7371084;19;20345;-76
2022/11/03 13:23:11;;;;;;;1.90;1.40;;;14.90;99.90;;;;;;7370243;19;20321;-76
2022/11/03 13:25:36;;;;;;;2.27;1.60;;;14.80;99.90;;;;;;7371139;19;20340;-77
2022/11/03 13:28:02;;;;;;;2.40;1.23;;;14.70;99.90;;;;;;7371958;19;20305;-77